createdAt,value
2022-10-11T00:00:40.466Z,7.90
2022-10-11T00:03:11.165Z,8.80
2022-10-11T00:05:41.586Z,8.20
2022-10-11T00:08:11.259Z,8.70
2022-10-11T00:10:44.143Z,8.10
2022-10-11T00:13:13.253Z,8.00
2022-10-11T00:15:43.510Z,7.90
2022-10-11T00:18:13.101Z,8.30
2022-10-11T00:20:43.522Z,8.30
2022-10-11T00:23:14.790Z,8.10
2022-10-11T00:25:44.326Z,7.90
2022-10-11T00:28:13.607Z,7.90
2022-10-11T00:30:44.672Z,8.50
2022-10-11T00:33:15.639Z,8.00
2022-10-11T00:35:44.701Z,8.00
2022-10-11T00:38:15.011Z,8.20
2022-10-11T00:40:45.036Z,7.70
2022-10-11T00:43:26.056Z,8.00
2022-10-11T00:45:58.591Z,8.10
2022-10-11T00:48:50.774Z,8.20
2022-10-11T00:51:25.496Z,7.20
2022-10-11T00:53:56.024Z,7.40
2022-10-11T00:56:32.049Z,6.20
2022-10-11T00:59:06.366Z,6.90
2022-10-11T01:01:37.226Z,6.90
2022-10-11T01:04:10.840Z,6.70
2022-10-11T01:06:40.266Z,7.50
2022-10-11T01:09:10.248Z,7.50
2022-10-11T01:11:42.751Z,6.10
2022-10-11T01:14:37.692Z,7.00
2022-10-11T01:17:26.339Z,6.80
2022-10-11T01:20:29.018Z,7.60
2022-10-11T01:23:13.828Z,7.30
2022-10-11T01:26:04.363Z,7.20
2022-10-11T01:29:01.435Z,7.00
2022-10-11T01:32:05.160Z,7.50
2022-10-11T01:34:53.302Z,7.50
2022-10-11T01:37:35.938Z,7.30
2022-10-11T01:40:12.451Z,7.00
2022-10-11T01:42:44.085Z,7.30
2022-10-11T01:45:18.335Z,7.40
2022-10-11T01:47:48.316Z,7.40
2022-10-11T01:50:40.995Z,7.80
2022-10-11T01:53:50.373Z,7.50
2022-10-11T01:56:44.123Z,7.30
2022-10-11T02:02:39.712Z,6.90
2022-10-11T02:05:41.178Z,7.30
2022-10-11T02:08:34.835Z,6.80
2022-10-11T02:11:08.361Z,6.60
2022-10-11T02:13:46.659Z,7.00
2022-10-11T02:16:23.762Z,6.80
2022-10-11T02:18:56.469Z,7.00
2022-10-11T02:21:27.128Z,6.80
2022-10-11T02:24:09.505Z,6.70
2022-10-11T02:26:45.006Z,6.90
2022-10-11T02:29:18.858Z,7.00
2022-10-11T02:31:52.575Z,7.50
2022-10-11T02:34:26.168Z,6.30
2022-10-11T02:37:07.448Z,6.70
2022-10-11T02:39:49.041Z,7.00
2022-10-11T02:42:34.136Z,7.00
2022-10-11T02:45:12.223Z,6.40
2022-10-11T02:47:46.980Z,6.40
2022-10-11T02:50:18.208Z,6.30
2022-10-11T02:52:47.887Z,6.70
2022-10-11T02:55:17.174Z,5.70
2022-10-11T02:57:47.506Z,5.40
2022-10-11T03:00:16.841Z,5.10
2022-10-11T03:02:46.545Z,5.70
2022-10-11T03:05:16.781Z,5.80
2022-10-11T03:07:46.565Z,6.00
2022-10-11T03:10:16.380Z,6.00
2022-10-11T03:12:45.783Z,6.10
2022-10-11T03:15:15.260Z,5.80
2022-10-11T03:17:45.481Z,6.30
2022-10-11T03:20:17.666Z,6.60
2022-10-11T03:22:46.809Z,5.90
2022-10-11T03:25:18.263Z,6.20
2022-10-11T03:27:47.461Z,6.40
2022-10-11T03:30:18.488Z,5.80
2022-10-11T03:32:48.413Z,6.60
2022-10-11T03:35:18.254Z,6.60
2022-10-11T03:37:54.414Z,6.00
2022-10-11T03:40:23.863Z,6.20
2022-10-11T03:42:53.581Z,6.00
2022-10-11T03:45:23.524Z,6.00
2022-10-11T03:47:52.631Z,6.10
2022-10-11T03:50:21.689Z,5.50
2022-10-11T03:52:54.191Z,6.10
2022-10-11T03:55:24.263Z,6.10
2022-10-11T03:57:53.792Z,6.10
2022-10-11T04:00:25.514Z,6.00
2022-10-11T04:02:55.087Z,6.00
2022-10-11T04:05:25.385Z,6.10
2022-10-11T04:07:55.167Z,5.90
2022-10-11T04:10:24.971Z,6.20
2022-10-11T04:12:55.169Z,5.90
2022-10-11T04:15:27.792Z,5.80
2022-10-11T04:17:57.273Z,5.40
2022-10-11T04:20:35.651Z,5.40
2022-10-11T04:23:04.866Z,5.70
2022-10-11T04:25:35.113Z,6.50
2022-10-11T04:28:04.455Z,6.20
2022-10-11T04:30:34.010Z,5.90
2022-10-11T04:33:02.970Z,5.70
2022-10-11T04:35:33.793Z,5.60
2022-10-11T04:38:05.943Z,5.70
2022-10-11T04:40:35.762Z,5.70
2022-10-11T04:43:05.489Z,5.90
2022-10-11T04:45:35.218Z,5.90
2022-10-11T04:48:04.815Z,5.90
2022-10-11T04:50:34.279Z,6.30
2022-10-11T04:53:03.186Z,5.40
2022-10-11T04:55:33.646Z,5.80
2022-10-11T04:58:03.351Z,5.80
2022-10-11T05:00:32.679Z,6.00
2022-10-11T05:03:01.829Z,5.40
2022-10-11T05:05:31.251Z,5.60
2022-10-11T05:08:00.442Z,5.50
2022-10-11T05:10:29.429Z,5.40
2022-10-11T05:12:58.667Z,4.50
2022-10-11T05:15:30.467Z,4.80
2022-10-11T05:18:01.045Z,4.70
2022-10-11T05:20:31.714Z,4.70
2022-10-11T05:23:00.840Z,4.80
2022-10-11T05:25:33.709Z,5.20
2022-10-11T05:28:03.030Z,5.50
2022-10-11T05:30:32.571Z,5.20
2022-10-11T05:33:02.561Z,5.20
2022-10-11T05:35:31.678Z,5.40
2022-10-11T05:37:59.056Z,5.60
2022-10-11T05:40:27.119Z,5.70
2022-10-11T05:42:54.119Z,5.10
2022-10-11T05:45:24.213Z,5.40
2022-10-11T05:47:51.378Z,5.80
2022-10-11T05:50:22.034Z,5.50
2022-10-11T05:52:51.621Z,5.30
2022-10-11T05:55:22.762Z,4.90
2022-10-11T05:57:53.623Z,5.10
2022-10-11T06:00:30.496Z,5.20
2022-10-11T06:03:03.263Z,5.00
2022-10-11T06:05:30.414Z,5.50
2022-10-11T06:07:59.114Z,5.40
2022-10-11T06:10:26.858Z,4.70
2022-10-11T06:12:54.012Z,5.00
2022-10-11T06:15:25.435Z,5.00
2022-10-11T06:17:54.052Z,4.90
2022-10-11T06:20:21.098Z,5.10
2022-10-11T06:22:48.578Z,5.00
2022-10-11T06:25:17.023Z,5.30
2022-10-11T06:27:43.976Z,5.00
2022-10-11T06:30:13.699Z,5.50
2022-10-11T06:32:40.741Z,5.00
2022-10-11T06:35:09.327Z,5.00
2022-10-11T06:37:38.322Z,5.00
2022-10-11T06:40:07.408Z,5.00
2022-10-11T06:42:34.830Z,4.70
2022-10-11T06:45:01.806Z,4.70
2022-10-11T06:47:28.863Z,4.50
2022-10-11T06:49:57.341Z,3.80
2022-10-11T06:52:24.488Z,3.90
2022-10-11T06:54:51.540Z,4.00
2022-10-11T06:57:19.530Z,4.00
2022-10-11T06:59:47.667Z,4.10
2022-10-11T07:02:14.679Z,4.50
2022-10-11T07:04:41.650Z,3.90
2022-10-11T07:07:08.864Z,4.50
2022-10-11T07:09:36.078Z,4.80
2022-10-11T07:12:05.182Z,3.90
2022-10-11T07:14:32.727Z,4.10
2022-10-11T07:17:04.023Z,4.50
2022-10-11T07:19:33.522Z,5.30
2022-10-11T07:22:06.779Z,4.70
2022-10-11T07:24:33.821Z,4.80
2022-10-11T07:27:03.444Z,4.70
2022-10-11T07:29:30.653Z,4.80
2022-10-11T07:32:00.804Z,4.60
2022-10-11T07:34:27.686Z,4.60
2022-10-11T07:36:54.695Z,4.70
2022-10-11T07:39:26.970Z,4.10
2022-10-11T07:41:54.019Z,4.20
2022-10-11T07:44:21.172Z,4.10
2022-10-11T07:46:48.854Z,3.70
2022-10-11T07:49:15.778Z,4.00
2022-10-11T07:51:42.897Z,3.60
2022-10-11T07:54:10.578Z,4.10
2022-10-11T07:59:22.857Z,3.70
2022-10-11T08:01:50.005Z,3.60
2022-10-11T08:04:17.856Z,4.10
2022-10-11T08:06:45.745Z,4.00
2022-10-11T08:09:15.345Z,3.80
2022-10-11T08:11:43.467Z,3.90
2022-10-11T08:14:15.239Z,4.40
2022-10-11T08:16:42.291Z,3.60
2022-10-11T08:19:11.159Z,4.00
2022-10-11T08:21:38.186Z,3.80
2022-10-11T08:24:06.932Z,4.40
2022-10-11T08:26:35.691Z,4.20
2022-10-11T08:29:04.315Z,4.20
2022-10-11T08:31:34.698Z,4.10
2022-10-11T08:34:04.615Z,4.40
2022-10-11T08:36:32.269Z,8.40
2022-10-11T08:38:59.632Z,8.00
2022-10-11T08:41:32.414Z,8.40
2022-10-11T08:44:05.612Z,8.00
2022-10-11T08:46:35.626Z,8.00
2022-10-11T08:49:05.642Z,7.90
2022-10-11T08:51:52.865Z,7.40
2022-10-11T08:54:34.854Z,7.00
2022-10-11T08:57:05.946Z,7.40
2022-10-11T08:59:58.154Z,7.40
2022-10-11T09:03:07.018Z,7.60
2022-10-11T09:05:58.072Z,6.90
2022-10-11T09:09:03.904Z,7.00
2022-10-11T09:11:52.489Z,6.50
2022-10-11T09:14:55.083Z,5.40
2022-10-11T09:17:52.852Z,5.60
2022-10-11T09:20:41.997Z,4.60
2022-10-11T09:23:27.808Z,5.60
2022-10-11T09:26:27.088Z,5.80
2022-10-11T09:29:15.538Z,6.40
2022-10-11T09:31:49.584Z,5.90
2022-10-11T09:34:19.051Z,5.00
2022-10-11T09:37:35.517Z,5.20
2022-10-11T09:40:31.695Z,5.20
2022-10-11T09:43:01.160Z,5.20
2022-10-11T09:45:28.549Z,4.90
2022-10-11T09:47:59.313Z,6.10
2022-10-11T09:50:29.811Z,4.70
2022-10-11T09:53:02.885Z,4.50
2022-10-11T09:55:49.952Z,4.40
2022-10-11T09:58:26.907Z,4.00
2022-10-11T10:01:05.100Z,4.60
2022-10-11T10:03:47.625Z,4.30
2022-10-11T10:06:27.438Z,4.90
2022-10-11T10:08:55.638Z,4.10
2022-10-11T10:11:27.485Z,4.40
2022-10-11T10:13:59.594Z,4.90
2022-10-11T10:16:35.604Z,4.80
2022-10-11T10:19:09.330Z,5.00
2022-10-11T10:21:39.144Z,5.10
2022-10-11T10:24:09.781Z,5.20
2022-10-11T10:26:38.262Z,4.70
2022-10-11T10:29:18.748Z,5.00
2022-10-11T10:32:12.931Z,4.40
2022-10-11T10:35:09.548Z,4.50
2022-10-11T10:37:43.968Z,4.10
2022-10-11T10:40:23.502Z,4.40
2022-10-11T10:42:51.273Z,4.50
2022-10-11T10:45:24.370Z,5.00
2022-10-11T10:48:03.390Z,4.50
2022-10-11T10:50:42.297Z,4.50
2022-10-11T10:53:23.125Z,4.20
2022-10-11T10:56:05.762Z,4.70
2022-10-11T10:59:00.696Z,4.70
2022-10-11T11:01:32.417Z,4.60
2022-10-11T11:04:30.325Z,4.20
2022-10-11T11:07:54.900Z,4.00
2022-10-11T11:10:25.718Z,3.50
2022-10-11T11:13:28.772Z,4.30
2022-10-11T11:16:19.555Z,4.00
2022-10-11T11:18:58.887Z,3.90
2022-10-11T11:21:41.892Z,4.20
2022-10-11T11:24:30.388Z,3.80
2022-10-11T11:27:06.117Z,4.50
2022-10-11T11:29:41.460Z,5.20
2022-10-11T11:32:35.030Z,6.20
2022-10-11T11:35:06.448Z,7.40
2022-10-11T11:37:40.799Z,7.50
2022-10-11T11:40:16.960Z,7.10
2022-10-11T11:43:15.833Z,8.10
2022-10-11T11:45:48.947Z,8.10
2022-10-11T11:48:20.903Z,8.20
2022-10-11T11:51:09.965Z,7.80
2022-10-11T11:54:06.542Z,6.80
2022-10-11T11:56:58.023Z,7.50
2022-10-11T11:59:38.077Z,7.20
2022-10-11T12:02:42.015Z,7.40
2022-10-11T12:05:12.936Z,7.50
2022-10-11T12:07:57.284Z,6.80
2022-10-11T12:10:27.990Z,7.30
2022-10-11T12:13:20.738Z,6.50
2022-10-11T12:16:06.489Z,5.40
2022-10-11T12:18:41.918Z,5.60
2022-10-11T12:21:37.418Z,5.90
2022-10-11T12:24:12.193Z,6.10
2022-10-11T12:26:44.660Z,5.10
2022-10-11T12:29:18.524Z,5.60
2022-10-11T12:31:49.628Z,5.90
2022-10-11T12:37:22.673Z,5.40
2022-10-11T12:39:57.845Z,6.00
2022-10-11T12:42:30.098Z,5.40
2022-10-11T12:45:13.251Z,5.30
2022-10-11T12:48:28.690Z,5.10
2022-10-11T12:51:23.168Z,5.50
2022-10-11T12:54:24.926Z,5.20
2022-10-11T12:57:00.940Z,5.10
2022-10-11T12:59:31.635Z,5.20
2022-10-11T13:02:00.556Z,5.40
2022-10-11T13:04:33.062Z,5.80
2022-10-11T13:07:12.969Z,5.20
2022-10-11T13:09:48.840Z,5.10
2022-10-11T13:12:20.166Z,5.30
2022-10-11T13:15:12.396Z,4.50
2022-10-11T13:17:42.225Z,4.40
2022-10-11T13:20:24.617Z,4.00
2022-10-11T13:22:57.002Z,4.70
2022-10-11T13:25:27.731Z,4.40
2022-10-11T13:27:58.453Z,4.30
2022-10-11T13:30:31.851Z,4.50
2022-10-11T13:33:01.248Z,4.30
2022-10-11T13:35:36.511Z,4.90
2022-10-11T13:38:07.633Z,4.60
2022-10-11T13:40:36.691Z,4.40
2022-10-11T13:43:06.084Z,4.80
2022-10-11T13:45:36.150Z,4.40
2022-10-11T13:48:03.520Z,4.50
2022-10-11T13:50:35.027Z,4.40
2022-10-11T13:53:22.831Z,4.40
2022-10-11T13:56:06.644Z,4.50
2022-10-11T13:58:47.715Z,4.00
2022-10-11T14:01:20.832Z,4.20
2022-10-11T14:04:04.204Z,3.80
2022-10-11T14:06:46.135Z,4.10
2022-10-11T14:09:23.624Z,3.60
2022-10-11T14:11:52.826Z,3.40
2022-10-11T14:14:35.948Z,3.80
2022-10-11T14:17:22.961Z,4.60
2022-10-11T14:20:15.929Z,3.80
2022-10-11T14:22:43.530Z,3.60
2022-10-11T14:25:12.687Z,3.80
2022-10-11T14:27:39.928Z,3.90
2022-10-11T14:30:31.209Z,3.90
2022-10-11T14:33:01.276Z,3.90
2022-10-11T14:35:31.175Z,3.80
2022-10-11T14:37:58.523Z,3.90
2022-10-11T14:40:29.368Z,3.80
2022-10-11T14:42:57.129Z,3.70
2022-10-11T14:45:24.893Z,3.90
2022-10-11T14:47:52.144Z,4.30
2022-10-11T14:50:45.403Z,4.00
2022-10-11T14:53:14.847Z,3.40
2022-10-11T14:55:43.353Z,3.30
2022-10-11T14:58:13.936Z,3.40
2022-10-11T15:00:40.919Z,2.90
2022-10-11T15:03:08.839Z,3.00
2022-10-11T15:05:37.528Z,2.80
2022-10-11T15:08:06.772Z,3.60
2022-10-11T15:10:38.139Z,3.40
2022-10-11T15:13:07.408Z,3.40
2022-10-11T15:15:37.192Z,3.50
2022-10-11T15:18:06.722Z,3.40
2022-10-11T15:20:38.035Z,3.50
2022-10-11T15:23:06.540Z,3.80
2022-10-11T15:25:34.899Z,3.80
2022-10-11T15:28:03.589Z,4.30
2022-10-11T15:30:40.936Z,4.70
2022-10-11T15:33:09.726Z,5.00
2022-10-11T15:35:39.063Z,4.60
2022-10-11T15:38:25.248Z,5.10
2022-10-11T15:40:53.438Z,8.10
2022-10-11T15:43:25.122Z,13.50
2022-10-11T15:45:55.107Z,22.40
2022-10-11T15:48:29.891Z,26.60
2022-10-11T15:50:57.707Z,26.90
2022-10-11T15:53:28.736Z,22.90
2022-10-11T15:56:01.625Z,21.30
2022-10-11T15:58:32.416Z,18.60
2022-10-11T16:01:05.734Z,16.80
2022-10-11T16:03:36.372Z,15.80
2022-10-11T16:06:05.701Z,16.50
2022-10-11T16:08:34.184Z,14.10
2022-10-11T16:11:01.933Z,17.10
2022-10-11T16:13:29.884Z,15.90
2022-10-11T16:16:00.668Z,13.90
2022-10-11T16:18:35.733Z,12.90
2022-10-11T16:21:13.434Z,12.40
2022-10-11T16:23:48.461Z,12.10
2022-10-11T16:26:17.299Z,11.40
2022-10-11T16:28:45.406Z,11.90
2022-10-11T16:31:18.470Z,10.80
2022-10-11T16:33:48.120Z,11.40
2022-10-11T16:36:36.956Z,11.50
2022-10-11T16:39:14.637Z,11.10
2022-10-11T16:41:45.554Z,9.70
2022-10-11T16:44:19.592Z,8.40
2022-10-11T16:46:48.782Z,9.10
2022-10-11T16:49:22.884Z,8.40
2022-10-11T16:51:51.387Z,8.20
2022-10-11T16:54:21.178Z,7.70
2022-10-11T16:56:50.587Z,8.10
2022-10-11T16:59:26.154Z,7.40
2022-10-11T17:01:55.796Z,6.50
2022-10-11T17:04:22.983Z,7.10
2022-10-11T17:06:51.601Z,6.90
2022-10-11T17:09:20.176Z,7.10
2022-10-11T17:11:49.656Z,6.20
2022-10-11T17:14:20.499Z,5.70
2022-10-11T17:16:47.749Z,5.70
2022-10-11T17:19:18.814Z,4.80
2022-10-11T17:21:45.942Z,5.20
2022-10-11T17:24:13.495Z,5.20
2022-10-11T17:29:50.860Z,5.20
2022-10-11T17:32:28.620Z,5.00
2022-10-11T17:34:58.819Z,4.70
2022-10-11T17:37:29.030Z,4.60
2022-10-11T17:39:56.110Z,4.90
2022-10-11T17:42:23.185Z,4.60
2022-10-11T17:44:50.470Z,4.30
2022-10-11T17:47:20.493Z,4.10
2022-10-11T17:50:02.348Z,4.00
2022-10-11T17:52:35.281Z,4.00
2022-10-11T17:55:02.371Z,4.30
2022-10-11T17:57:30.440Z,3.70
2022-10-11T17:59:59.629Z,3.10
2022-10-11T18:02:36.714Z,3.90
2022-10-11T18:05:06.363Z,4.10
2022-10-11T18:07:34.651Z,4.00
2022-10-11T18:10:17.021Z,4.20
2022-10-11T18:12:50.765Z,4.00
2022-10-11T18:15:24.086Z,3.30
2022-10-11T18:18:04.079Z,3.90
2022-10-11T18:20:57.546Z,3.10
2022-10-11T18:23:28.501Z,3.40
2022-10-11T18:26:09.738Z,3.60
2022-10-11T18:28:38.292Z,3.80
2022-10-11T18:31:14.694Z,3.20
2022-10-11T18:33:47.474Z,3.10
2022-10-11T18:36:17.243Z,3.40
2022-10-11T18:38:50.011Z,3.60
2022-10-11T18:41:32.340Z,3.50
2022-10-11T18:44:05.017Z,3.40
2022-10-11T18:46:35.992Z,3.80
2022-10-11T18:49:04.144Z,3.20
2022-10-11T18:51:36.151Z,3.10
2022-10-11T18:54:06.255Z,3.00
2022-10-11T18:56:45.006Z,2.50
2022-10-11T18:59:12.935Z,2.80
2022-10-11T19:01:45.187Z,3.20
2022-10-11T19:04:18.920Z,3.10
2022-10-11T19:06:54.607Z,3.10
2022-10-11T19:09:37.575Z,2.90
2022-10-11T19:12:21.582Z,3.10
2022-10-11T19:14:59.545Z,3.00
2022-10-11T19:17:28.470Z,3.20
2022-10-11T19:20:02.561Z,3.10
2022-10-11T19:22:31.390Z,3.00
2022-10-11T19:25:03.800Z,3.70
2022-10-11T19:27:31.770Z,3.40
2022-10-11T19:30:06.494Z,2.80
2022-10-11T19:32:38.644Z,2.90
2022-10-11T19:37:59.671Z,2.70
2022-10-11T19:40:30.250Z,2.30
2022-10-11T19:45:56.024Z,2.50
2022-10-11T19:48:24.585Z,3.00
2022-10-11T19:51:09.010Z,3.20
2022-10-11T19:53:37.939Z,3.10
2022-10-11T19:56:16.872Z,2.90
2022-10-11T19:59:11.259Z,2.60
2022-10-11T20:01:40.347Z,2.60
2022-10-11T20:07:01.496Z,2.90
2022-10-11T20:09:31.111Z,3.00
2022-10-11T20:12:21.372Z,2.70
2022-10-11T20:14:50.786Z,2.40
2022-10-11T20:17:48.968Z,2.40
2022-10-11T20:20:19.395Z,2.40
2022-10-11T20:22:46.378Z,2.60
2022-10-11T20:25:13.955Z,2.80
2022-10-11T20:27:48.405Z,2.90
2022-10-11T20:30:20.890Z,2.80
2022-10-11T20:32:53.929Z,2.80
2022-10-11T20:35:32.353Z,3.00
2022-10-11T20:38:06.494Z,2.90
2022-10-11T20:40:37.755Z,2.70
2022-10-11T20:43:11.476Z,3.20
2022-10-11T20:46:23.868Z,2.60
2022-10-11T20:49:06.384Z,2.50
2022-10-11T20:51:44.620Z,2.80
2022-10-11T20:54:20.915Z,2.60
2022-10-11T20:57:04.918Z,2.40
2022-10-11T20:59:37.411Z,2.50
2022-10-11T21:02:05.881Z,2.20
2022-10-11T21:04:33.421Z,2.70
2022-10-11T21:07:00.416Z,2.50
2022-10-11T21:09:27.630Z,2.80
2022-10-11T21:11:54.706Z,3.00
2022-10-11T21:14:21.674Z,2.70
2022-10-11T21:16:48.852Z,2.80
2022-10-11T21:19:16.303Z,2.50
2022-10-11T21:21:47.402Z,2.80
2022-10-11T21:24:17.989Z,3.00
2022-10-11T21:26:45.068Z,2.80
2022-10-11T21:29:12.044Z,2.80
2022-10-11T21:31:40.927Z,2.90
2022-10-11T21:34:08.116Z,2.60
2022-10-11T21:36:35.597Z,2.90
2022-10-11T21:39:03.000Z,2.20
2022-10-11T21:41:30.428Z,2.00
2022-10-11T21:43:58.882Z,2.50
2022-10-11T21:46:54.198Z,2.40
2022-10-11T21:49:15.732Z,2.30
2022-10-11T21:51:46.615Z,2.30
2022-10-11T21:54:13.684Z,2.70
2022-10-11T21:56:40.747Z,2.60
2022-10-11T21:59:11.163Z,2.70
2022-10-11T22:01:41.456Z,2.90
2022-10-11T22:04:12.510Z,2.60
2022-10-11T22:06:46.012Z,2.80
2022-10-11T22:09:15.415Z,2.80
2022-10-11T22:11:42.519Z,2.80
2022-10-11T22:14:10.541Z,2.70
2022-10-11T22:16:37.431Z,2.60
2022-10-11T22:19:04.440Z,2.40
2022-10-11T22:21:31.505Z,2.30
2022-10-11T22:23:58.761Z,2.10
2022-10-11T22:26:30.910Z,2.60
2022-10-11T22:28:59.095Z,2.70
2022-10-11T22:31:26.661Z,2.70
2022-10-11T22:33:58.044Z,2.50
2022-10-11T22:36:25.929Z,2.60
2022-10-11T22:38:53.607Z,2.60
2022-10-11T22:41:21.115Z,2.60
2022-10-11T22:43:48.174Z,2.80
2022-10-11T22:46:15.136Z,2.70
2022-10-11T22:48:42.057Z,2.80
2022-10-11T22:51:09.187Z,2.50
2022-10-11T22:53:36.379Z,2.40
2022-10-11T22:56:03.715Z,2.60
2022-10-11T22:58:30.704Z,3.00
2022-10-11T23:00:57.574Z,2.90
2022-10-11T23:03:25.188Z,2.60
2022-10-11T23:05:58.437Z,2.70
2022-10-11T23:08:25.527Z,2.20
2022-10-11T23:10:53.172Z,2.20
2022-10-11T23:13:20.661Z,2.40
2022-10-11T23:15:47.713Z,2.30
2022-10-11T23:18:18.706Z,2.30
2022-10-11T23:20:45.722Z,2.40
2022-10-11T23:23:12.653Z,2.50
2022-10-11T23:25:39.746Z,2.80
2022-10-11T23:28:06.815Z,2.60
2022-10-11T23:30:33.754Z,2.30
2022-10-11T23:33:00.712Z,2.40
2022-10-11T23:35:27.572Z,2.60
2022-10-11T23:37:55.003Z,2.80
2022-10-11T23:40:22.023Z,3.00
2022-10-11T23:42:48.892Z,2.80
2022-10-11T23:45:16.026Z,2.50
2022-10-11T23:47:42.950Z,2.50
2022-10-11T23:50:10.146Z,2.90
2022-10-11T23:52:37.082Z,3.00
2022-10-11T23:55:04.297Z,2.80
2022-10-11T23:57:31.308Z,2.60
2022-10-11T23:59:58.255Z,2.40
